Time;durP1;ratioP1;P1;durP2;ratioP2;P2;SDS_P1;SDS_P2;PMS_P1;PMS_P2;Temp;Humidity;BMP_temperature;BMP_pressure;BME280_temperature;BME280_humidity;BME280_pressure;Samples;Min_cycle;Max_cycle;Signal;HPM_P1;HPM_P2
2023/11/27 00:02:22;;;;;;;;;14.25;12.00;;;;;8.88;65.54;100851.84;5092850;27;45670;-66
2023/11/27 00:04:48;;;;;;;;;12.00;12.00;;;;;9.00;65.88;100866.66;5096456;27;45492;-66
2023/11/27 00:07:13;;;;;;;;;16.25;13.75;;;;;8.93;65.59;100844.63;5098104;27;45806;-66
2023/11/27 00:09:38;;;;;;;;;13.00;12.75;;;;;8.99;65.28;100851.63;5097737;27;45447;-66
2023/11/27 00:12:04;;;;;;;;;13.00;12.25;;;;;8.94;65.43;100846.41;5098687;27;54118;-66
2023/11/27 00:14:29;;;;;;;;;10.50;10.00;;;;;8.92;65.64;100856.22;5098766;27;47249;-66
2023/11/27 00:16:55;;;;;;;;;13.75;12.00;;;;;8.83;65.60;100828.00;5099068;27;45300;-66
2023/11/27 00:19:20;;;;;;;;;12.75;12.75;;;;;8.93;65.88;100833.13;5098163;27;45522;-66
2023/11/27 00:21:45;;;;;;;;;14.75;12.50;;;;;8.89;65.55;100827.84;5100570;27;45463;-66
2023/11/27 00:24:11;;;;;;;;;14.50;14.00;;;;;8.85;65.55;100810.22;5102136;27;46471;-66
2023/11/27 00:26:36;;;;;;;;;15.00;12.25;;;;;8.81;65.42;100805.00;5088675;27;45452;-66
2023/11/27 00:29:02;;;;;;;;;13.50;12.50;;;;;8.86;65.55;100814.63;5098987;27;45384;-66
2023/11/27 00:31:27;;;;;;;;;14.75;12.50;;;;;8.89;65.34;100819.88;5100898;27;45598;-66
2023/11/27 00:33:53;;;;;;;;;10.50;10.50;;;;;8.84;65.47;100803.13;5101961;27;46135;-66
2023/11/27 00:36:18;;;;;;;;;13.50;12.50;;;;;8.89;65.63;100811.03;5100888;27;45406;-66
2023/11/27 00:38:43;;;;;;;;;12.25;12.25;;;;;8.86;65.85;100806.63;5102372;27;45556;-66
2023/11/27 00:41:14;;;;;;;;;14.00;12.25;;;;;8.79;65.98;100788.22;5101725;27;57721;-66
2023/11/27 00:43:42;;;;;;;;;13.50;10.25;;;;;8.84;65.40;100796.94;5102086;27;45421;-66
2023/11/27 00:46:08;;;;;;;;;10.25;9.75;;;;;8.79;65.20;100786.41;5102329;27;45518;-66
2023/11/27 00:48:34;;;;;;;;;8.00;8.00;;;;;8.82;65.54;100791.66;5102177;27;45428;-66
2023/11/27 00:50:59;;;;;;;;;17.25;12.75;;;;;8.87;65.68;100799.50;5099530;27;55786;-66
2023/11/27 00:53:24;;;;;;;;;16.25;9.50;;;;;8.81;65.36;100779.25;5101763;27;46263;-66
2023/11/27 00:55:50;;;;;;;;;14.50;13.50;;;;;8.84;65.22;100780.97;5102109;27;45371;-66
2023/11/27 00:58:15;;;;;;;;;12.50;11.75;;;;;8.92;65.02;100779.00;5100684;27;45493;-66
2023/11/27 01:00:41;;;;;;;;;11.25;11.25;;;;;8.93;65.04;100779.88;5102035;27;45377;-66
2023/11/27 01:03:06;;;;;;;;;12.75;11.00;;;;;8.86;65.27;100776.47;5093544;27;45488;-66
2023/11/27 01:05:32;;;;;;;;;12.75;11.75;;;;;8.74;65.60;100759.03;5101603;27;51046;-66
2023/11/27 01:07:58;;;;;;;;;11.75;11.75;;;;;8.64;65.35;100734.44;5101878;27;45461;-66
2023/11/27 01:10:23;;;;;;;;;8.75;8.75;;;;;8.81;65.37;100762.41;5100449;27;45482;-66
2023/11/27 01:12:49;;;;;;;;;11.50;9.75;;;;;8.83;65.70;100752.59;5101688;27;45406;-66
2023/11/27 01:15:14;;;;;;;;;10.75;9.00;;;;;8.82;65.78;100745.50;5100430;27;45337;-66
2023/11/27 01:17:42;;;;;;;;;11.50;8.50;;;;;8.80;65.77;100740.22;5101722;27;45380;-66
2023/11/27 01:20:09;;;;;;;;;12.50;11.00;;;;;8.78;65.91;100726.09;5107493;27;45433;-66
2023/11/27 01:22:37;;;;;;;;;6.00;6.00;;;;;8.81;65.89;100735.81;5100054;27;47184;-66
2023/11/27 01:25:04;;;;;;;;;3.50;2.75;;;;;8.73;66.01;100722.66;5098271;27;45321;-66
2023/11/27 01:27:31;;;;;;;;;8.50;8.25;;;;;8.81;66.07;100725.16;5087129;27;45316;-66
2023/11/27 01:29:56;;;;;;;;;12.75;9.00;;;;;8.76;66.06;100717.28;5100690;27;45304;-66
2023/11/27 01:32:24;;;;;;;;;12.00;9.50;;;;;8.70;65.97;100699.69;5101334;27;45395;-66
2023/11/27 01:34:52;;;;;;;;;8.00;7.50;;;;;8.73;66.38;100705.84;5101159;27;45869;-66
2023/11/27 01:37:18;;;;;;;;;8.75;8.75;;;;;8.79;65.77;100708.34;5101369;27;45375;-66
2023/11/27 01:39:44;;;;;;;;;8.75;7.75;;;;;8.72;65.82;100699.66;5101416;27;45352;-66
2023/11/27 01:42:09;;;;;;;;;7.75;7.75;;;;;8.73;66.14;100696.06;5101041;27;46079;-66
2023/11/27 01:44:36;;;;;;;;;8.75;8.75;;;;;8.78;66.03;100691.50;5101272;27;45251;-66
2023/11/27 01:47:02;;;;;;;;;10.50;8.50;;;;;8.75;65.35;100674.72;5100028;27;45405;-66
2023/11/27 01:49:28;;;;;;;;;8.00;6.75;;;;;8.88;65.67;100695.66;5100375;27;45577;-66
2023/11/27 01:51:53;;;;;;;;;7.75;7.00;;;;;8.90;65.55;100698.28;5100872;27;46079;-66
2023/11/27 01:54:19;;;;;;;;;6.75;6.00;;;;;8.84;65.61;100691.34;5101249;27;45340;-66
2023/11/27 01:56:48;;;;;;;;;8.00;7.00;;;;;8.55;65.56;100638.84;5101106;27;45522;-66
2023/11/27 01:59:14;;;;;;;;;7.25;7.25;;;;;8.79;65.36;100674.63;5099261;27;45376;-66
2023/11/27 02:01:40;;;;;;;;;11.00;8.00;;;;;8.67;65.12;100661.59;5085089;27;47603;-66
2023/11/27 02:04:05;;;;;;;;;10.25;7.50;;;;;8.67;65.82;100662.50;5093111;27;45302;-66
2023/11/27 02:06:30;;;;;;;;;7.75;6.00;;;;;8.75;65.50;100666.75;5100860;27;45412;-66
2023/11/27 02:08:56;;;;;;;;;7.00;7.00;;;;;8.83;65.70;100673.59;5101041;27;45244;-66
2023/11/27 02:11:22;;;;;;;;;7.75;6.25;;;;;8.86;65.34;100665.53;5100721;27;45428;-66
2023/11/27 02:13:48;;;;;;;;;9.75;7.50;;;;;8.82;65.41;100650.59;5107336;27;45335;-66
2023/11/27 02:16:16;;;;;;;;;8.00;8.00;;;;;8.80;65.44;100641.75;5100144;27;57001;-66
2023/11/27 02:18:41;;;;;;;;;6.50;5.00;;;;;8.73;65.84;100632.19;5100599;27;45455;-66
2023/11/27 02:21:07;;;;;;;;;6.50;6.50;;;;;8.78;65.61;100638.25;5099169;27;46101;-66
2023/11/27 02:23:32;;;;;;;;;6.75;5.00;;;;;8.77;65.59;100627.66;5100796;27;45448;-66
2023/11/27 02:25:58;;;;;;;;;6.25;6.00;;;;;8.86;65.67;100636.25;5089442;27;45495;-66
2023/11/27 02:28:23;;;;;;;;;6.25;6.00;;;;;8.84;65.71;100634.59;5091807;27;45432;-66
2023/11/27 02:30:49;;;;;;;;;6.25;6.00;;;;;8.83;65.37;100617.72;5116004;27;47061;-66
2023/11/27 02:33:14;;;;;;;;;4.50;4.50;;;;;8.94;65.55;100625.41;5100236;27;45281;-66
2023/11/27 02:35:39;;;;;;;;;8.25;8.25;;;;;8.84;65.49;100611.50;5099122;27;45344;-66
2023/11/27 02:38:04;;;;;;;;;7.25;7.25;;;;;8.96;65.84;100630.72;5100285;27;49449;-66
2023/11/27 02:40:30;;;;;;;;;6.00;6.00;;;;;8.95;65.70;100627.16;5098769;27;47173;-66
2023/11/27 02:42:56;;;;;;;;;6.00;6.00;;;;;8.92;66.18;100605.06;5098144;27;45333;-66
2023/11/27 02:45:21;;;;;;;;;8.00;7.00;;;;;8.98;66.38;100602.25;5080449;27;45417;-66
2023/11/27 02:47:46;;;;;;;;;7.75;6.50;;;;;8.85;66.38;100591.94;5090259;27;45648;-66
2023/11/27 02:50:13;;;;;;;;;10.00;7.25;;;;;8.82;67.14;100585.81;5098483;27;45412;-66
2023/11/27 02:52:39;;;;;;;;;7.00;6.00;;;;;8.75;67.22;100585.09;5099686;27;45584;-65
2023/11/27 02:55:05;;;;;;;;;4.50;2.75;;;;;8.68;67.08;100579.06;5100229;27;45376;-66
2023/11/27 02:57:30;;;;;;;;;8.00;7.00;;;;;8.74;67.35;100582.47;5099015;27;45811;-66
2023/11/27 02:59:56;;;;;;;;;7.25;6.75;;;;;8.68;67.75;100565.78;5098393;27;45367;-66
2023/11/27 03:02:21;;;;;;;;;7.00;3.75;;;;;8.59;67.71;100557.19;5092133;27;58608;-66
2023/11/27 03:04:46;;;;;;;;;4.00;4.00;;;;;8.63;68.37;100573.00;5098434;27;45416;-66
2023/11/27 03:07:13;;;;;;;;;7.00;7.00;;;;;8.63;68.70;100573.00;5098762;27;45494;-66
2023/11/27 03:09:38;;;;;;;;;8.25;6.00;;;;;8.52;68.78;100543.19;5099185;27;46212;-66
2023/11/27 03:12:04;;;;;;;;;8.00;6.00;;;;;8.63;68.96;100556.19;5097842;27;45432;-66
2023/11/27 03:14:29;;;;;;;;;8.00;6.25;;;;;8.61;69.51;100550.91;5098668;27;45456;-66
2023/11/27 03:16:55;;;;;;;;;7.50;6.25;;;;;8.59;68.44;100555.41;5098552;27;45452;-66
2023/11/27 03:19:21;;;;;;;;;8.00;7.25;;;;;8.46;69.16;100538.88;5098277;27;45422;-66
2023/11/27 03:21:46;;;;;;;;;6.25;6.00;;;;;8.50;69.27;100543.22;5098135;27;45595;-66
2023/11/27 03:24:12;;;;;;;;;7.50;6.50;;;;;8.30;69.07;100508.25;5099670;27;45425;-65
2023/11/27 03:26:37;;;;;;;;;6.50;3.75;;;;;8.42;69.63;100517.69;5084931;27;45269;-66
2023/11/27 03:29:02;;;;;;;;;9.00;7.00;;;;;8.55;69.48;100536.88;5094630;27;51376;-66
2023/11/27 03:31:28;;;;;;;;;7.50;7.50;;;;;8.45;69.43;100505.25;5099495;27;45366;-66
2023/11/27 03:33:53;;;;;;;;;6.00;5.50;;;;;8.60;69.13;100521.66;5099532;27;45456;-66
2023/11/27 03:36:18;;;;;;;;;6.00;6.00;;;;;8.45;69.28;100493.69;5097990;27;59374;-66
2023/11/27 03:38:44;;;;;;;;;6.50;6.00;;;;;8.56;69.49;100498.75;5098805;27;46159;-66
2023/11/27 03:41:22;;;;;;;;;7.75;6.00;;;;;8.66;69.06;100497.56;5099432;27;45456;-66
2023/11/27 03:43:48;;;;;;;;;6.00;4.00;;;;;8.56;69.00;100486.31;5099567;27;45384;-66
2023/11/27 03:46:14;;;;;;;;;7.00;5.00;;;;;8.61;68.77;100475.53;5098851;27;46120;-66
2023/11/27 03:48:39;;;;;;;;;7.50;5.50;;;;;8.69;68.50;100473.53;5099077;27;46091;-66
2023/11/27 03:51:06;;;;;;;;;2.75;2.75;;;;;8.73;68.55;100496.47;5098080;27;45336;-66
2023/11/27 03:53:31;;;;;;;;;6.00;4.00;;;;;8.75;68.47;100481.31;5099108;27;45440;-66
2023/11/27 03:55:56;;;;;;;;;6.50;6.50;;;;;8.68;67.87;100469.97;5103237;27;45294;-66
2023/11/27 03:58:22;;;;;;;;;5.00;5.00;;;;;8.71;68.16;100469.03;5102698;27;46055;-66
2023/11/27 04:00:47;;;;;;;;;6.50;4.00;;;;;8.75;68.34;100461.81;5102783;27;45306;-66
2023/11/27 04:03:12;;;;;;;;;7.00;6.00;;;;;8.63;68.54;100420.47;5101958;27;45382;-66
2023/11/27 04:05:38;;;;;;;;;6.25;4.00;;;;;8.76;68.41;100431.66;5102457;27;50833;-66
2023/11/27 04:08:04;;;;;;;;;6.75;6.75;;;;;8.61;69.32;100414.34;5100990;27;45290;-66
2023/11/27 04:10:29;;;;;;;;;6.25;6.25;;;;;8.68;68.75;100422.06;5102196;27;45697;-66
2023/11/27 04:12:55;;;;;;;;;4.50;4.50;;;;;8.53;69.45;100396.78;5101551;27;45337;-66
2023/11/27 04:15:20;;;;;;;;;6.00;6.00;;;;;8.67;69.63;100419.47;5102433;27;54407;-66
2023/11/27 04:17:45;;;;;;;;;7.50;7.50;;;;;8.75;69.75;100436.06;5102417;27;45502;-66
2023/11/27 04:20:11;;;;;;;;;7.75;7.25;;;;;8.68;69.95;100416.75;5101106;27;45431;-66
2023/11/27 04:22:38;;;;;;;;;7.50;7.00;;;;;8.75;70.19;100432.53;5101315;27;45424;-66
2023/11/27 04:25:04;;;;;;;;;7.50;6.00;;;;;8.62;70.28;100403.66;5099061;27;45426;-66
2023/11/27 04:27:30;;;;;;;;;8.75;6.75;;;;;8.75;70.18;100417.44;5088017;27;45318;-66
2023/11/27 04:29:56;;;;;;;;;9.00;8.50;;;;;8.70;70.41;100414.94;5101993;27;45244;-66
2023/11/27 04:32:22;;;;;;;;;8.75;7.75;;;;;8.70;70.05;100409.63;5102658;27;45246;-66
2023/11/27 04:34:47;;;;;;;;;8.75;6.00;;;;;8.72;70.52;100428.22;5102161;27;45560;-66
2023/11/27 04:37:14;;;;;;;;;7.50;7.50;;;;;8.53;70.78;100388.81;5099714;27;46789;-66
2023/11/27 04:39:42;;;;;;;;;6.75;6.25;;;;;8.70;70.36;100422.03;5102375;27;45408;-66
2023/11/27 04:42:09;;;;;;;;;8.50;8.00;;;;;8.67;71.46;100414.13;5100862;27;45350;-66
2023/11/27 04:44:35;;;;;;;;;6.75;6.75;;;;;8.65;71.35;100411.56;5102318;27;45483;-66
2023/11/27 04:47:00;;;;;;;;;9.25;9.25;;;;;8.69;71.55;100410.53;5100728;27;46077;-66
2023/11/27 04:49:26;;;;;;;;;9.50;8.75;;;;;8.55;71.55;100388.78;5101866;27;45330;-66
2023/11/27 04:51:51;;;;;;;;;7.75;6.75;;;;;8.56;71.69;100393.19;5100848;27;45431;-66
2023/11/27 04:54:17;;;;;;;;;8.00;7.00;;;;;8.48;72.16;100373.91;5102203;27;45319;-66
2023/11/27 04:56:42;;;;;;;;;10.25;8.25;;;;;8.50;72.56;100374.72;5100972;27;70009;-66
2023/11/27 04:59:07;;;;;;;;;7.00;7.00;;;;;8.46;72.47;100371.31;5102008;27;45305;-66
2023/11/27 05:01:33;;;;;;;;;9.00;9.00;;;;;8.34;72.82;100348.56;5100267;27;45277;-66
2023/11/27 05:03:58;;;;;;;;;8.00;7.50;;;;;8.42;72.82;100350.13;5093240;27;45215;-66
2023/11/27 05:06:23;;;;;;;;;8.25;7.00;;;;;8.41;72.95;100349.25;5098720;27;64175;-66
2023/11/27 05:08:49;;;;;;;;;12.25;10.25;;;;;8.24;73.25;100333.81;5102162;27;45519;-66
2023/11/27 05:11:19;;;;;;;;;10.50;6.00;;;;;8.25;73.14;100337.31;5101753;27;45728;-66
2023/11/27 05:13:45;;;;;;;;;8.75;7.25;;;;;8.21;73.71;100320.59;5101793;27;45299;-66
2023/11/27 05:16:10;;;;;;;;;13.75;10.25;;;;;8.21;74.01;100331.22;5099998;27;47842;-66
2023/11/27 05:18:35;;;;;;;;;8.75;7.00;;;;;8.11;74.45;100319.13;5101737;27;45446;-66
2023/11/27 05:21:01;;;;;;;;;8.25;6.50;;;;;8.03;73.99;100305.19;5100775;27;60631;-66
2023/11/27 05:23:26;;;;;;;;;9.00;8.00;;;;;8.08;74.56;100319.22;5101223;27;50526;-66
2023/11/27 05:25:51;;;;;;;;;10.75;8.75;;;;;8.02;74.60;100292.78;5074518;28;51622;-66
2023/11/27 05:28:16;;;;;;;;;5.75;4.50;;;;;8.09;74.71;100327.13;5091996;27;45313;-66
2023/11/27 05:30:42;;;;;;;;;6.00;6.00;;;;;8.08;74.66;100308.56;5099255;27;54478;-66
2023/11/27 05:33:07;;;;;;;;;6.75;6.00;;;;;8.01;74.65;100293.72;5101367;27;45747;-66
2023/11/27 05:35:32;;;;;;;;;8.00;8.00;;;;;8.01;75.22;100291.06;5101306;27;46540;-66
2023/11/27 05:37:58;;;;;;;;;11.00;10.00;;;;;7.97;74.83;100280.53;5100094;27;46196;-66
2023/11/27 05:40:23;;;;;;;;;10.75;7.75;;;;;7.96;75.48;100272.59;5101281;27;45554;-66
2023/11/27 05:42:49;;;;;;;;;8.00;8.00;;;;;8.08;75.33;100276.66;5101319;27;45608;-66
2023/11/27 05:45:14;;;;;;;;;7.75;6.50;;;;;8.15;75.49;100286.19;5101200;27;46023;-66
2023/11/27 05:47:40;;;;;;;;;7.00;7.00;;;;;8.12;75.64;100281.84;5101213;27;45729;-66
2023/11/27 05:50:08;;;;;;;;;6.25;5.50;;;;;8.05;75.29;100256.38;5101180;27;45326;-66
2023/11/27 05:52:33;;;;;;;;;8.50;6.75;;;;;8.20;75.41;100275.44;5101292;27;45437;-66
2023/11/27 05:54:59;;;;;;;;;9.25;7.25;;;;;8.16;75.18;100274.66;5101137;27;46240;-66
2023/11/27 05:57:25;;;;;;;;;8.50;7.50;;;;;8.08;75.39;100274.88;5099913;27;45329;-64
2023/11/27 05:59:50;;;;;;;;;6.75;6.00;;;;;8.14;75.69;100276.50;5100974;27;45316;-64
2023/11/27 06:02:15;;;;;;;;;9.00;7.50;;;;;8.05;76.11;100252.84;5093886;27;45757;-64
2023/11/27 06:04:43;;;;;;;;;9.00;9.00;;;;;8.22;75.77;100268.28;5097777;27;45284;-64
2023/11/27 06:07:08;;;;;;;;;11.75;9.00;;;;;8.13;75.92;100243.69;5099897;27;45491;-64
2023/11/27 06:09:33;;;;;;;;;7.25;7.00;;;;;8.26;76.29;100275.25;5100259;27;45318;-64
2023/11/27 06:11:59;;;;;;;;;6.00;6.00;;;;;8.23;75.88;100262.06;5100275;27;56966;-64
2023/11/27 06:14:24;;;;;;;;;11.25;8.50;;;;;8.16;76.07;100250.72;5100604;27;45421;-64
2023/11/27 06:16:49;;;;;;;;;2.50;2.50;;;;;8.18;76.27;100248.03;5100916;27;45384;-64
2023/11/27 06:19:15;;;;;;;;;14.25;9.75;;;;;8.12;76.45;100235.81;5100449;27;45391;-63
2023/11/27 06:21:40;;;;;;;;;9.75;8.00;;;;;8.12;76.48;100241.97;5100342;27;45707;-64
2023/11/27 06:24:06;;;;;;;;;8.25;8.25;;;;;8.10;76.72;100233.19;5100258;27;45449;-64
2023/11/27 06:26:31;;;;;;;;;6.50;5.75;;;;;8.15;76.95;100241.91;5086413;27;45362;-64
2023/11/27 06:28:57;;;;;;;;;7.75;7.75;;;;;8.04;77.39;100213.91;5095815;27;50802;-64
2023/11/27 06:31:23;;;;;;;;;8.50;8.50;;;;;8.22;76.99;100234.59;5100145;27;45535;-64
2023/11/27 06:33:48;;;;;;;;;9.50;8.25;;;;;8.26;77.29;100222.94;5100084;27;46192;-64
2023/11/27 06:36:13;;;;;;;;;10.75;8.50;;;;;8.20;77.31;100217.81;5097047;27;46076;-64
2023/11/27 06:38:38;;;;;;;;;8.75;7.00;;;;;8.26;77.19;100216.75;5100359;27;45389;-63
2023/11/27 06:41:05;;;;;;;;;9.00;8.75;;;;;8.26;77.29;100222.06;5099769;27;45499;-64
2023/11/27 06:43:31;;;;;;;;;10.75;10.00;;;;;8.26;77.62;100203.47;5099990;27;45565;-64
2023/11/27 06:45:56;;;;;;;;;11.25;9.00;;;;;8.24;77.88;100184.91;5098418;27;45548;-66
2023/11/27 06:48:21;;;;;;;;;8.00;8.00;;;;;8.24;77.70;100192.00;5085095;27;45266;-66
2023/11/27 06:50:47;;;;;;;;;11.25;11.25;;;;;8.22;77.71;100183.19;5100176;27;45329;-66
2023/11/27 06:53:12;;;;;;;;;7.25;7.25;;;;;8.25;77.98;100183.09;5098112;27;47220;-66
2023/11/27 06:55:38;;;;;;;;;8.00;7.25;;;;;8.24;78.19;100192.88;5098851;27;45373;-66
2023/11/27 06:58:04;;;;;;;;;8.75;8.75;;;;;8.24;78.28;100182.25;5100132;27;45434;-66
2023/11/27 07:00:31;;;;;;;;;8.25;8.25;;;;;8.21;77.73;100171.69;5100056;27;45398;-66
2023/11/27 07:02:57;;;;;;;;;8.00;7.00;;;;;8.22;78.34;100160.16;5091395;27;46062;-66
2023/11/27 07:05:22;;;;;;;;;10.25;8.75;;;;;8.22;78.72;100165.47;5097867;27;45460;-66
2023/11/27 07:07:48;;;;;;;;;9.00;7.75;;;;;8.27;78.89;100162.63;5095882;27;47807;-66
2023/11/27 07:10:13;;;;;;;;;8.00;8.00;;;;;8.18;78.54;100139.03;5096433;27;45506;-65
2023/11/27 07:12:39;;;;;;;;;6.75;6.75;;;;;8.20;78.71;100148.66;5098075;27;45351;-66
2023/11/27 07:15:05;;;;;;;;;9.00;6.00;;;;;8.10;78.91;100147.22;5095022;27;45865;-66
2023/11/27 07:17:30;;;;;;;;;7.00;6.25;;;;;8.13;78.73;100148.00;5098969;27;45700;-65
2023/11/27 07:19:56;;;;;;;;;6.75;6.75;;;;;8.07;78.87;100136.69;5099243;27;45325;-66
2023/11/27 07:22:21;;;;;;;;;7.75;7.75;;;;;8.12;79.38;100148.94;5098827;27;70134;-65
2023/11/27 07:24:47;;;;;;;;;10.50;8.00;;;;;8.06;79.61;100125.19;5096673;27;45262;-66
2023/11/27 07:27:12;;;;;;;;;11.25;8.00;;;;;8.04;79.83;100132.34;5097768;27;45289;-66
2023/11/27 07:29:38;;;;;;;;;10.00;10.00;;;;;8.10;79.68;100129.50;5097184;27;45475;-66
2023/11/27 07:32:04;;;;;;;;;6.00;5.00;;;;;8.00;79.79;100109.44;5098978;27;45318;-66
2023/11/27 07:34:29;;;;;;;;;10.50;8.50;;;;;8.07;79.70;100124.28;5098192;27;45475;-66
2023/11/27 07:36:55;;;;;;;;;9.00;9.00;;;;;8.15;79.96;100138.22;5097428;27;45434;-66
2023/11/27 07:39:22;;;;;;;;;7.00;7.00;;;;;8.09;80.21;100125.09;5097651;27;55895;-65
2023/11/27 07:41:47;;;;;;;;;6.00;6.00;;;;;8.14;80.21;100133.78;5098177;27;45398;-65
2023/11/27 07:44:12;;;;;;;;;9.00;8.00;;;;;8.06;80.06;100109.25;5097485;27;45435;-66
2023/11/27 07:46:38;;;;;;;;;9.50;9.50;;;;;8.15;80.42;100124.03;5104968;27;45444;-66
2023/11/27 07:49:04;;;;;;;;;9.50;9.50;;;;;8.04;80.03;100095.16;5098879;27;45420;-66
2023/11/27 07:51:30;;;;;;;;;8.50;8.50;;;;;8.13;80.53;100113.44;5099111;27;46116;-66
2023/11/27 07:53:56;;;;;;;;;7.25;7.25;;;;;8.19;80.34;100116.84;5097966;27;45826;-66
2023/11/27 07:56:27;;;;;;;;;5.75;4.75;;;;;8.12;80.38;100094.91;5097494;27;46122;-66
2023/11/27 07:58:53;;;;;;;;;10.00;8.25;;;;;8.10;80.54;100099.38;5093606;27;45476;-66
2023/11/27 08:01:18;;;;;;;;;7.75;5.50;;;;;8.09;80.70;100073.75;5097306;27;45925;-66
2023/11/27 08:03:43;;;;;;;;;8.00;7.50;;;;;8.19;80.59;100092.91;5090587;27;45508;-66
2023/11/27 08:06:09;;;;;;;;;6.25;6.25;;;;;8.20;80.58;100078.69;5092042;27;45550;-66
2023/11/27 08:08:35;;;;;;;;;7.00;6.75;;;;;8.29;80.43;100079.25;5095532;27;45393;-66
2023/11/27 08:11:02;;;;;;;;;7.25;6.50;;;;;8.26;80.82;100070.50;5098092;27;46298;-66
2023/11/27 08:13:27;;;;;;;;;6.75;6.75;;;;;8.30;80.99;100086.31;5099432;27;45488;-66
2023/11/27 08:15:53;;;;;;;;;9.25;8.25;;;;;8.29;80.41;100073.94;5099111;27;45709;-66
2023/11/27 08:18:19;;;;;;;;;7.75;6.50;;;;;8.24;80.99;100053.75;5099033;27;45400;-66
2023/11/27 08:20:45;;;;;;;;;6.00;6.00;;;;;8.27;80.74;100048.31;5097216;27;45926;-66
2023/11/27 08:23:12;;;;;;;;;8.75;7.00;;;;;8.27;80.73;100051.84;5090064;27;45641;-65
2023/11/27 08:25:41;;;;;;;;;7.25;7.00;;;;;8.25;80.47;100037.75;5098380;27;45443;-65
2023/11/27 08:28:07;;;;;;;;;9.00;6.00;;;;;8.23;80.84;100028.06;5092376;27;45943;-64
2023/11/27 08:30:32;;;;;;;;;3.50;3.50;;;;;8.22;80.87;100045.81;5095755;27;46558;-64
2023/11/27 08:32:58;;;;;;;;;4.50;4.00;;;;;8.37;81.03;100055.06;5097421;27;45380;-64
2023/11/27 08:35:23;;;;;;;;;4.00;4.00;;;;;8.32;80.98;100036.59;5094923;27;45526;-64
2023/11/27 08:37:49;;;;;;;;;6.25;4.50;;;;;8.24;80.84;100012.06;5097381;27;58462;-65
2023/11/27 08:40:14;;;;;;;;;4.50;4.00;;;;;8.20;81.15;100009.56;5098856;27;45699;-63
2023/11/27 08:42:40;;;;;;;;;7.00;7.00;;;;;8.28;81.73;100010.16;5101463;27;45512;-63
2023/11/27 08:45:10;;;;;;;;;7.75;6.00;;;;;8.21;81.52;99996.22;5101812;27;45454;-63
2023/11/27 08:47:39;;;;;;;;;6.00;6.00;;;;;8.14;82.14;99992.91;5100607;27;45422;-64
2023/11/27 08:50:07;;;;;;;;;6.50;5.00;;;;;8.35;81.77;100019.66;5101807;27;45628;-63
2023/11/27 08:52:34;;;;;;;;;6.00;6.00;;;;;8.37;81.59;100012.53;5097956;27;45461;-64
2023/11/27 08:55:00;;;;;;;;;8.00;6.75;;;;;8.38;81.81;100018.69;5099973;27;45369;-64
2023/11/27 08:57:25;;;;;;;;;7.50;6.25;;;;;8.28;82.02;99995.06;5098604;27;45559;-64
2023/11/27 08:59:50;;;;;;;;;7.25;7.25;;;;;8.32;82.35;100006.50;5099804;27;46067;-64
2023/11/27 09:02:16;;;;;;;;;4.50;4.50;;;;;8.34;82.61;100004.66;5092751;27;58032;-64
2023/11/27 09:04:41;;;;;;;;;10.25;7.00;;;;;8.38;82.54;99994.75;5098084;27;45331;-64
2023/11/27 09:07:07;;;;;;;;;10.00;8.00;;;;;8.34;82.74;99978.91;5097632;27;45424;-64
2023/11/27 09:09:33;;;;;;;;;8.75;8.75;;;;;8.22;82.57;99950.09;5100044;27;46351;-64
2023/11/27 09:11:58;;;;;;;;;9.00;7.50;;;;;8.42;82.75;99976.00;5098842;27;45318;-64
2023/11/27 09:14:24;;;;;;;;;7.25;7.25;;;;;8.38;82.55;99970.84;5098029;27;45349;-64
2023/11/27 09:16:49;;;;;;;;;11.50;8.50;;;;;8.35;82.50;99959.38;5100875;27;45527;-64
2023/11/27 09:19:14;;;;;;;;;10.00;8.25;;;;;8.39;82.88;99972.59;5095778;27;57737;-64
2023/11/27 09:21:40;;;;;;;;;9.75;9.00;;;;;8.39;82.86;99962.81;5098418;27;45457;-64
2023/11/27 09:24:05;;;;;;;;;9.00;8.00;;;;;8.36;82.66;99957.59;5098500;27;60121;-64
2023/11/27 09:26:31;;;;;;;;;9.50;7.25;;;;;8.32;83.10;99938.22;5100004;27;45669;-64
2023/11/27 09:28:56;;;;;;;;;9.00;7.50;;;;;8.45;83.24;99959.97;5097002;27;46619;-64
2023/11/27 09:31:22;;;;;;;;;11.25;9.25;;;;;8.48;83.12;99953.66;5096107;27;58210;-64
2023/11/27 09:33:47;;;;;;;;;12.75;9.00;;;;;8.45;83.18;99945.78;5098913;27;45428;-65
2023/11/27 09:36:15;;;;;;;;;11.25;8.75;;;;;8.46;82.96;99934.22;5099019;27;45663;-63
2023/11/27 09:38:41;;;;;;;;;11.25;8.25;;;;;8.39;83.42;99909.63;5096292;27;45324;-62
2023/11/27 09:41:07;;;;;;;;;11.00;9.75;;;;;8.52;83.48;99928.69;5097647;27;45580;-63
2023/11/27 09:43:34;;;;;;;;;9.00;8.00;;;;;8.51;83.15;99930.47;5099607;27;45430;-62
2023/11/27 09:46:05;;;;;;;;;8.00;7.25;;;;;8.57;83.33;99937.38;5097227;27;46273;-63
2023/11/27 09:48:34;;;;;;;;;11.25;9.50;;;;;8.60;83.70;99923.91;5099852;27;45400;-64
2023/11/27 09:51:05;;;;;;;;;7.50;7.25;;;;;8.60;83.50;99915.94;5099554;27;46066;-64
2023/11/27 09:53:40;;;;;;;;;7.50;7.25;;;;;8.62;83.63;99930.06;5097934;27;45420;-63
2023/11/27 09:56:07;;;;;;;;;8.50;8.50;;;;;8.74;83.60;99922.53;5097291;27;45322;-63
2023/11/27 09:58:34;;;;;;;;;7.75;7.00;;;;;8.70;83.42;99909.38;5096745;27;45479;-63
2023/11/27 10:01:02;;;;;;;;;6.25;5.00;;;;;8.77;83.56;99914.44;5097920;27;45369;-63
2023/11/27 10:03:29;;;;;;;;;8.50;7.75;;;;;8.79;83.73;99917.94;5092803;27;45326;-63
2023/11/27 10:05:54;;;;;;;;;9.00;9.00;;;;;8.71;83.69;99891.59;5098359;27;45609;-63
2023/11/27 10:08:19;;;;;;;;;7.75;7.00;;;;;8.77;83.43;99894.03;5099178;27;46237;-63
2023/11/27 10:10:47;;;;;;;;;9.50;8.00;;;;;8.78;83.36;99893.09;5095930;27;45521;-63
2023/11/27 10:13:12;;;;;;;;;9.00;7.75;;;;;8.83;83.55;99898.25;5099373;27;45413;-63
2023/11/27 10:15:38;;;;;;;;;6.50;6.50;;;;;8.83;83.31;99887.59;5098460;27;64864;-62
2023/11/27 10:18:08;;;;;;;;;7.75;7.50;;;;;8.83;83.81;99896.44;5098309;27;45421;-62
2023/11/27 10:20:35;;;;;;;;;9.00;7.75;;;;;8.82;83.79;99883.19;5091277;27;45832;-62
2023/11/27 10:23:06;;;;;;;;;7.00;6.50;;;;;8.84;83.72;99868.06;5098063;27;45448;-62
2023/11/27 10:25:33;;;;;;;;;7.75;7.75;;;;;8.84;83.84;99852.09;5091363;27;45438;-62
2023/11/27 10:28:00;;;;;;;;;6.50;6.50;;;;;8.93;83.94;99845.53;5096369;27;46550;-62
2023/11/27 10:30:29;;;;;;;;;7.75;7.25;;;;;8.91;84.08;99840.25;5098275;27;45492;-62
2023/11/27 10:32:55;;;;;;;;;6.25;6.25;;;;;8.80;83.97;99824.72;5095614;27;45392;-60
2023/11/27 10:35:24;;;;;;;;;5.50;4.00;;;;;8.94;83.88;99847.25;5101391;27;45354;-60
2023/11/27 10:37:50;;;;;;;;;7.25;6.75;;;;;8.94;83.92;99837.50;5096415;27;45941;-60
2023/11/27 10:40:17;;;;;;;;;8.00;8.00;;;;;8.87;84.15;99823.56;5098459;27;45528;-60
2023/11/27 10:42:47;;;;;;;;;6.00;4.00;;;;;8.94;83.97;99807.31;5098281;27;45450;-60
2023/11/27 10:45:16;;;;;;;;;8.00;5.50;;;;;9.06;83.74;99814.81;5098245;27;45436;-60
2023/11/27 10:47:44;;;;;;;;;7.00;6.75;;;;;9.09;83.62;99812.91;5092254;27;46539;-60
2023/11/27 10:50:15;;;;;;;;;7.00;7.00;;;;;9.09;83.78;99804.91;5093647;27;45549;-60
2023/11/27 10:52:49;;;;;;;;;8.50;8.50;;;;;9.00;84.14;99785.78;5094377;27;45768;-60
2023/11/27 10:55:17;;;;;;;;;3.75;3.75;;;;;8.99;84.24;99789.41;5092988;27;45792;-60
2023/11/27 10:57:44;;;;;;;;;11.50;11.50;;;;;8.93;84.04;99769.19;5096901;27;46699;-59
2023/11/27 11:00:14;;;;;;;;;7.75;7.00;;;;;9.04;84.47;99780.28;5097828;27;45727;-59
2023/11/27 11:02:41;;;;;;;;;6.75;6.75;;;;;9.03;84.45;99769.69;5092610;27;45463;-59
2023/11/27 11:05:10;;;;;;;;;6.50;5.50;;;;;8.93;84.42;99747.91;5098609;27;45757;-59
2023/11/27 11:07:47;;;;;;;;;6.00;6.00;;;;;9.03;84.75;99773.22;5096615;27;45594;-59
2023/11/27 11:10:13;;;;;;;;;7.50;7.00;;;;;9.04;84.87;99761.66;5096721;27;45775;-59
2023/11/27 11:12:43;;;;;;;;;7.00;7.00;;;;;9.05;84.72;99747.41;5094587;27;45915;-59
2023/11/27 11:15:13;;;;;;;;;8.25;7.75;;;;;9.09;84.74;99745.50;5097684;27;45519;-59
2023/11/27 11:18:10;;;;;;;;;7.00;4.00;;;;;9.10;84.79;99744.53;5097183;27;47008;-59
2023/11/27 11:21:20;;;;;;;;;4.00;4.00;;;;;9.14;85.15;99731.94;5098187;27;45646;-59
2023/11/27 11:24:01;;;;;;;;;7.25;6.75;;;;;9.00;85.38;99703.28;5055496;28;45616;-59
2023/11/27 11:27:07;;;;;;;;;10.75;9.75;;;;;9.18;85.40;99715.78;5087390;27;45572;-60
2023/11/27 11:29:36;;;;;;;;;8.00;6.25;;;;;9.14;85.31;99710.66;5095056;27;46083;-60